sensor_id;sensor_type;location;lat;lon;timestamp;pressure;altitude;pressure_sealevel;temperature;humidity
33163;BME280;29282;45.656;11.302;2022-08-30T00:02:12;98639.72;;;24.97;62.25
33163;BME280;29282;45.656;11.302;2022-08-30T00:04:37;98639.72;;;24.97;62.37
33163;BME280;29282;45.656;11.302;2022-08-30T00:07:03;98639.72;;;24.97;62.51
33163;BME280;29282;45.656;11.302;2022-08-30T00:09:30;98639.72;;;24.97;62.41
33163;BME280;29282;45.656;11.302;2022-08-30T00:11:56;98635.31;;;24.96;62.54
33163;BME280;29282;45.656;11.302;2022-08-30T00:14:21;98634.16;;;24.97;62.40
33163;BME280;29282;45.656;11.302;2022-08-30T00:16:46;98630.56;;;24.96;62.37
33163;BME280;29282;45.656;11.302;2022-08-30T00:19:12;98635.31;;;24.96;62.55
33163;BME280;29282;45.656;11.302;2022-08-30T00:21:37;98624.22;;;24.96;62.55
33163;BME280;29282;45.656;11.302;2022-08-30T00:24:03;98624.63;;;24.94;62.48
33163;BME280;29282;45.656;11.302;2022-08-30T00:26:29;98617.88;;;24.95;62.24
33163;BME280;29282;45.656;11.302;2022-08-30T00:28:54;98613.13;;;24.96;62.29
33163;BME280;29282;45.656;11.302;2022-08-30T00:31:20;98619.47;;;24.96;62.40
33163;BME280;29282;45.656;11.302;2022-08-30T00:33:45;98617.09;;;24.95;62.21
33163;BME280;29282;45.656;11.302;2022-08-30T00:36:11;98615.91;;;24.96;62.32
33163;BME280;29282;45.656;11.302;2022-08-30T00:38:36;98615.13;;;24.95;62.44
33163;BME280;29282;45.656;11.302;2022-08-30T00:41:02;98621.44;;;24.96;62.18
33163;BME280;29282;45.656;11.302;2022-08-30T00:43:30;98619.88;;;24.95;62.36
33163;BME280;29282;45.656;11.302;2022-08-30T00:45:56;98619.88;;;24.95;62.38
33163;BME280;29282;45.656;11.302;2022-08-30T00:48:22;98636.09;;;24.96;62.38
33163;BME280;29282;45.656;11.302;2022-08-30T00:50:52;98638.88;;;24.96;62.32
33163;BME280;29282;45.656;11.302;2022-08-30T00:53:23;98617.09;;;24.95;62.30
33163;BME280;29282;45.656;11.302;2022-08-30T00:55:49;98617.88;;;24.95;62.17
33163;BME280;29282;45.656;11.302;2022-08-30T00:58:18;98613.53;;;24.94;62.34
33163;BME280;29282;45.656;11.302;2022-08-30T01:00:48;98607.19;;;24.94;62.32
33163;BME280;29282;45.656;11.302;2022-08-30T01:03:15;98596.09;;;24.94;62.30
33163;BME280;29282;45.656;11.302;2022-08-30T01:05:41;98601.66;;;24.94;62.47
33163;BME280;29282;45.656;11.302;2022-08-30T01:08:07;98601.66;;;24.94;61.98
33163;BME280;29282;45.656;11.302;2022-08-30T01:10:34;98602.44;;;24.94;62.36
33163;BME280;29282;45.656;11.302;2022-08-30T01:13:00;98610.75;;;24.94;62.31
33163;BME280;29282;45.656;11.302;2022-08-30T01:15:26;98605.22;;;24.94;62.24
33163;BME280;29282;45.656;11.302;2022-08-30T01:17:52;98607.19;;;24.94;62.48
33163;BME280;29282;45.656;11.302;2022-08-30T01:20:23;98609.13;;;24.93;62.39
33163;BME280;29282;45.656;11.302;2022-08-30T01:25:17;98598.44;;;24.92;62.66
33163;BME280;29282;45.656;11.302;2022-08-30T01:28:06;98602.78;;;24.93;62.51
33163;BME280;29282;45.656;11.302;2022-08-30T01:30:32;98604.41;;;24.94;62.37
33163;BME280;29282;45.656;11.302;2022-08-30T01:33:00;98606.00;;;24.95;61.79
33163;BME280;29282;45.656;11.302;2022-08-30T01:35:27;98611.56;;;24.95;61.97
33163;BME280;29282;45.656;11.302;2022-08-30T01:37:53;98619.88;;;24.95;62.36
33163;BME280;29282;45.656;11.302;2022-08-30T01:40:19;98619.88;;;24.95;62.30
33163;BME280;29282;45.656;11.302;2022-08-30T01:42:45;98618.28;;;24.94;62.18
33163;BME280;29282;45.656;11.302;2022-08-30T01:45:11;98620.66;;;24.95;62.26
33163;BME280;29282;45.656;11.302;2022-08-30T01:47:38;98614.66;;;24.93;62.04
33163;BME280;29282;45.656;11.302;2022-08-30T01:50:06;98613.53;;;24.94;62.15
33163;BME280;29282;45.656;11.302;2022-08-30T01:52:32;98601.66;;;24.94;62.35
33163;BME280;29282;45.656;11.302;2022-08-30T01:54:57;98597.69;;;24.95;62.25
33163;BME280;29282;45.656;11.302;2022-08-30T01:57:23;98602.44;;;24.94;62.03
33163;BME280;29282;45.656;11.302;2022-08-30T01:59:51;98598.88;;;24.94;62.32
33163;BME280;29282;45.656;11.302;2022-08-30T02:02:21;98602.78;;;24.93;62.21
33163;BME280;29282;45.656;11.302;2022-08-30T02:04:48;98611.91;;;24.93;62.25
33163;BME280;29282;45.656;11.302;2022-08-30T02:07:14;98612.72;;;24.94;62.27
33163;BME280;29282;45.656;11.302;2022-08-30T02:09:40;98612.72;;;24.94;62.20
33163;BME280;29282;45.656;11.302;2022-08-30T02:12:06;98606.34;;;24.93;62.29
33163;BME280;29282;45.656;11.302;2022-08-30T02:14:35;98620.22;;;24.93;62.32
33163;BME280;29282;45.656;11.302;2022-08-30T02:17:02;98623.00;;;24.93;62.37
33163;BME280;29282;45.656;11.302;2022-08-30T02:19:29;98631.31;;;24.93;62.36
33163;BME280;29282;45.656;11.302;2022-08-30T02:21:54;98626.59;;;24.94;62.05
33163;BME280;29282;45.656;11.302;2022-08-30T02:24:20;98614.66;;;24.93;62.22
33163;BME280;29282;45.656;11.302;2022-08-30T02:26:45;98605.56;;;24.93;62.22
33163;BME280;29282;45.656;11.302;2022-08-30T02:29:11;98615.84;;;24.92;62.11
33163;BME280;29282;45.656;11.302;2022-08-30T02:31:36;98617.84;;;24.92;62.37
33163;BME280;29282;45.656;11.302;2022-08-30T02:34:03;98616.66;;;24.93;62.18
33163;BME280;29282;45.656;11.302;2022-08-30T02:36:31;98622.19;;;24.93;62.29
33163;BME280;29282;45.656;11.302;2022-08-30T02:38:56;98636.84;;;24.93;62.34
33163;BME280;29282;45.656;11.302;2022-08-30T02:41:22;98647.13;;;24.93;62.46
33163;BME280;29282;45.656;11.302;2022-08-30T02:43:49;98649.91;;;24.93;62.45
33163;BME280;29282;45.656;11.302;2022-08-30T02:46:15;98661.00;;;24.93;62.37
33163;BME280;29282;45.656;11.302;2022-08-30T02:48:42;98660.19;;;24.92;62.35
33163;BME280;29282;45.656;11.302;2022-08-30T02:51:11;98656.63;;;24.92;62.24
33163;BME280;29282;45.656;11.302;2022-08-30T02:53:38;98644.75;;;24.91;62.38
33163;BME280;29282;45.656;11.302;2022-08-30T02:56:04;98644.75;;;24.91;62.50
33163;BME280;29282;45.656;11.302;2022-08-30T02:58:29;98647.53;;;24.91;62.60
33163;BME280;29282;45.656;11.302;2022-08-30T03:00:55;98659.41;;;24.92;62.14
33163;BME280;29282;45.656;11.302;2022-08-30T03:03:21;98655.84;;;24.91;62.56
33163;BME280;29282;45.656;11.302;2022-08-30T03:05:46;98663.34;;;24.91;62.37
33163;BME280;29282;45.656;11.302;2022-08-30T03:08:13;98672.47;;;24.91;62.42
33163;BME280;29282;45.656;11.302;2022-08-30T03:10:38;98674.44;;;24.91;62.55
33163;BME280;29282;45.656;11.302;2022-08-30T03:13:05;98680.78;;;24.91;62.38
33163;BME280;29282;45.656;11.302;2022-08-30T03:15:33;98676.84;;;24.92;62.46
33163;BME280;29282;45.656;11.302;2022-08-30T03:18:00;98670.88;;;24.90;62.40
33163;BME280;29282;45.656;11.302;2022-08-30T03:20:25;98657.00;;;24.90;62.59
33163;BME280;29282;45.656;11.302;2022-08-30T03:22:51;98653.41;;;24.90;62.46
33163;BME280;29282;45.656;11.302;2022-08-30T03:25:17;98645.94;;;24.90;62.29
33163;BME280;29282;45.656;11.302;2022-08-30T03:27:45;98641.53;;;24.89;62.44
33163;BME280;29282;45.656;11.302;2022-08-30T03:30:11;98636.00;;;24.89;62.54
33163;BME280;29282;45.656;11.302;2022-08-30T03:32:37;98642.34;;;24.90;62.16
33163;BME280;29282;45.656;11.302;2022-08-30T03:35:03;98638.75;;;24.89;62.20
33163;BME280;29282;45.656;11.302;2022-08-30T03:37:28;98639.56;;;24.90;62.44
33163;BME280;29282;45.656;11.302;2022-08-30T03:39:55;98645.09;;;24.90;62.08
33163;BME280;29282;45.656;11.302;2022-08-30T03:42:20;98649.06;;;24.89;62.11
33163;BME280;29282;45.656;11.302;2022-08-30T03:44:46;98661.72;;;24.90;62.29
33163;BME280;29282;45.656;11.302;2022-08-30T03:47:11;98678.38;;;24.90;62.17
33163;BME280;29282;45.656;11.302;2022-08-30T03:49:37;98686.69;;;24.90;62.19
33163;BME280;29282;45.656;11.302;2022-08-30T03:52:03;98711.63;;;24.90;62.23
33163;BME280;29282;45.656;11.302;2022-08-30T03:54:29;98719.53;;;24.88;61.91
33163;BME280;29282;45.656;11.302;2022-08-30T03:56:55;98725.06;;;24.88;61.93
33163;BME280;29282;45.656;11.302;2022-08-30T03:59:21;98727.41;;;24.85;62.14
33163;BME280;29282;45.656;11.302;2022-08-30T04:01:49;98719.06;;;24.85;62.09
33163;BME280;29282;45.656;11.302;2022-08-30T04:04:14;98727.78;;;24.84;62.07
33163;BME280;29282;45.656;11.302;2022-08-30T04:06:40;98726.16;;;24.83;62.07
33163;BME280;29282;45.656;11.302;2022-08-30T04:09:06;98728.91;;;24.83;61.10
33163;BME280;29282;45.656;11.302;2022-08-30T04:11:31;98719.41;;;24.80;62.14
33163;BME280;29282;45.656;11.302;2022-08-30T04:13:57;98719.41;;;24.80;61.19
33163;BME280;29282;45.656;11.302;2022-08-30T04:16:24;98718.56;;;24.80;61.09
33163;BME280;29282;45.656;11.302;2022-08-30T04:18:50;98725.28;;;24.79;61.63
33163;BME280;29282;45.656;11.302;2022-08-30T04:21:16;98720.91;;;24.78;61.38
33163;BME280;29282;45.656;11.302;2022-08-30T04:23:42;98714.59;;;24.77;61.51
33163;BME280;29282;45.656;11.302;2022-08-30T04:26:08;98718.50;;;24.76;61.57
33163;BME280;29282;45.656;11.302;2022-08-30T04:28:34;98712.97;;;24.76;61.32
33163;BME280;29282;45.656;11.302;2022-08-30T04:31:06;98700.28;;;24.75;61.31
33163;BME280;29282;45.656;11.302;2022-08-30T04:33:33;98705.03;;;24.75;61.05
33163;BME280;29282;45.656;11.302;2022-08-30T04:36:02;98700.66;;;24.74;61.05
33163;BME280;29282;45.656;11.302;2022-08-30T04:38:29;98702.25;;;24.75;60.83
33163;BME280;29282;45.656;11.302;2022-08-30T04:40:55;98694.75;;;24.75;61.43
33163;BME280;29282;45.656;11.302;2022-08-30T04:43:20;98680.09;;;24.75;60.93
33163;BME280;29282;45.656;11.302;2022-08-30T04:45:46;98680.88;;;24.75;61.21
33163;BME280;29282;45.656;11.302;2022-08-30T04:48:12;98672.56;;;24.75;61.22
33163;BME280;29282;45.656;11.302;2022-08-30T04:50:38;98672.56;;;24.75;60.95
33163;BME280;29282;45.656;11.302;2022-08-30T04:53:03;98662.28;;;24.76;60.94
33163;BME280;29282;45.656;11.302;2022-08-30T04:55:29;98663.91;;;24.77;60.71
33163;BME280;29282;45.656;11.302;2022-08-30T04:57:55;98658.38;;;24.77;60.92
33163;BME280;29282;45.656;11.302;2022-08-30T05:00:20;98669.44;;;24.77;60.70
33163;BME280;29282;45.656;11.302;2022-08-30T05:02:46;98663.09;;;24.76;60.55
33163;BME280;29282;45.656;11.302;2022-08-30T05:05:15;98664.69;;;24.77;60.56
33163;BME280;29282;45.656;11.302;2022-08-30T05:07:59;98672.22;;;24.77;60.44
33163;BME280;29282;45.656;11.302;2022-08-30T05:10:25;98676.13;;;24.76;60.49
33163;BME280;29282;45.656;11.302;2022-08-30T05:12:52;98679.72;;;24.76;60.27
33163;BME280;29282;45.656;11.302;2022-08-30T05:15:18;98676.94;;;24.76;60.09
33163;BME280;29282;45.656;11.302;2022-08-30T05:17:44;98671.41;;;24.76;60.25
33163;BME280;29282;45.656;11.302;2022-08-30T05:20:10;98672.22;;;24.77;60.02
33163;BME280;29282;45.656;11.302;2022-08-30T05:22:37;98663.53;;;24.78;60.08
33163;BME280;29282;45.656;11.302;2022-08-30T05:25:04;98672.22;;;24.77;60.22
33163;BME280;29282;45.656;11.302;2022-08-30T05:27:30;98669.88;;;24.79;59.70
33163;BME280;29282;45.656;11.302;2022-08-30T05:29:55;98677.38;;;24.78;59.68
33163;BME280;29282;45.656;11.302;2022-08-30T05:32:21;98673.00;;;24.77;60.10
33163;BME280;29282;45.656;11.302;2022-08-30T05:34:46;98668.28;;;24.78;59.75
33163;BME280;29282;45.656;11.302;2022-08-30T05:37:12;98661.13;;;24.77;59.91
33163;BME280;29282;45.656;11.302;2022-08-30T05:39:37;98655.59;;;24.77;59.87
33163;BME280;29282;45.656;11.302;2022-08-30T05:42:03;98665.50;;;24.78;59.92
33163;BME280;29282;45.656;11.302;2022-08-30T05:44:29;98663.91;;;24.77;59.88
33163;BME280;29282;45.656;11.302;2022-08-30T05:46:54;98670.25;;;24.77;59.81
33163;BME280;29282;45.656;11.302;2022-08-30T05:49:19;98667.47;;;24.77;59.93
33163;BME280;29282;45.656;11.302;2022-08-30T05:51:45;98663.91;;;24.77;59.98
33163;BME280;29282;45.656;11.302;2022-08-30T05:54:13;98663.09;;;24.76;60.01
33163;BME280;29282;45.656;11.302;2022-08-30T05:56:39;98661.50;;;24.75;59.96
33163;BME280;29282;45.656;11.302;2022-08-30T05:59:07;98661.13;;;24.77;59.77
33163;BME280;29282;45.656;11.302;2022-08-30T06:01:41;98653.97;;;24.76;59.84
33163;BME280;29282;45.656;11.302;2022-08-30T06:04:09;98658.72;;;24.75;59.73
33163;BME280;29282;45.656;11.302;2022-08-30T06:06:37;98659.50;;;24.76;59.73
33163;BME280;29282;45.656;11.302;2022-08-30T06:09:04;98655.94;;;24.75;59.99
33163;BME280;29282;45.656;11.302;2022-08-30T06:11:30;98661.50;;;24.75;59.97
33163;BME280;29282;45.656;11.302;2022-08-30T06:13:56;98661.50;;;24.75;60.02
33163;BME280;29282;45.656;11.302;2022-08-30T06:16:24;98664.25;;;24.75;59.84
33163;BME280;29282;45.656;11.302;2022-08-30T06:18:50;98663.09;;;24.76;59.91
33163;BME280;29282;45.656;11.302;2022-08-30T06:21:33;98663.09;;;24.76;59.99
33163;BME280;29282;45.656;11.302;2022-08-30T06:24:00;98664.69;;;24.77;60.10
33163;BME280;29282;45.656;11.302;2022-08-30T06:26:27;98670.25;;;24.77;60.09
33163;BME280;29282;45.656;11.302;2022-08-30T06:28:54;98669.06;;;24.78;60.11
33163;BME280;29282;45.656;11.302;2022-08-30T06:31:21;98668.28;;;24.78;60.13
33163;BME280;29282;45.656;11.302;2022-08-30T06:33:48;98661.56;;;24.79;59.99
33163;BME280;29282;45.656;11.302;2022-08-30T06:36:16;98664.75;;;24.81;60.18
33163;BME280;29282;45.656;11.302;2022-08-30T06:38:43;98663.13;;;24.80;60.15
33163;BME280;29282;45.656;11.302;2022-08-30T06:41:13;98659.56;;;24.79;59.90
33163;BME280;29282;45.656;11.302;2022-08-30T06:43:39;98657.59;;;24.80;60.34
33163;BME280;29282;45.656;11.302;2022-08-30T06:46:09;98666.75;;;24.80;60.13
33163;BME280;29282;45.656;11.302;2022-08-30T06:48:36;98663.97;;;24.80;60.23
33163;BME280;29282;45.656;11.302;2022-08-30T06:51:02;98669.94;;;24.82;60.18
33163;BME280;29282;45.656;11.302;2022-08-30T06:53:27;98674.31;;;24.83;60.30
33163;BME280;29282;45.656;11.302;2022-08-30T06:56:04;98673.50;;;24.83;60.06
33163;BME280;29282;45.656;11.302;2022-08-30T06:58:32;98682.63;;;24.83;60.39
33163;BME280;29282;45.656;11.302;2022-08-30T07:00:58;98684.56;;;24.83;60.36
33163;BME280;29282;45.656;11.302;2022-08-30T07:03:24;98681.81;;;24.83;60.46
33163;BME280;29282;45.656;11.302;2022-08-30T07:05:54;98681.41;;;24.81;60.25
33163;BME280;29282;45.656;11.302;2022-08-30T07:08:21;98680.22;;;24.82;60.46
33163;BME280;29282;45.656;11.302;2022-08-30T07:10:47;98676.25;;;24.83;60.45
33163;BME280;29282;45.656;11.302;2022-08-30T07:13:13;98683.78;;;24.82;60.42
33163;BME280;29282;45.656;11.302;2022-08-30T07:15:41;98674.66;;;24.82;60.52
33163;BME280;29282;45.656;11.302;2022-08-30T07:18:08;98677.88;;;24.84;60.19
33163;BME280;29282;45.656;11.302;2022-08-30T07:20:52;98679.09;;;24.87;60.29
33163;BME280;29282;45.656;11.302;2022-08-30T07:23:17;98670.44;;;24.88;60.33
33163;BME280;29282;45.656;11.302;2022-08-30T07:25:43;98673.19;;;24.88;59.86
33163;BME280;29282;45.656;11.302;2022-08-30T07:28:09;98670.03;;;24.90;59.73
33163;BME280;29282;45.656;11.302;2022-08-30T07:30:35;98672.81;;;24.90;59.76
33163;BME280;29282;45.656;11.302;2022-08-30T07:33:01;98671.66;;;24.91;59.76
33163;BME280;29282;45.656;11.302;2022-08-30T07:35:27;98671.66;;;24.91;59.54
33163;BME280;29282;45.656;11.302;2022-08-30T07:37:53;98664.16;;;24.91;59.71
33163;BME280;29282;45.656;11.302;2022-08-30T07:40:18;98669.69;;;24.91;59.58
33163;BME280;29282;45.656;11.302;2022-08-30T07:42:44;98656.63;;;24.92;59.41
33163;BME280;29282;45.656;11.302;2022-08-30T07:45:10;98661.00;;;24.93;59.64
33163;BME280;29282;45.656;11.302;2022-08-30T07:47:36;98664.56;;;24.93;59.64
33163;BME280;29282;45.656;11.302;2022-08-30T07:50:03;98665.38;;;24.94;59.56
33163;BME280;29282;45.656;11.302;2022-08-30T07:52:30;98672.09;;;24.93;59.37
33163;BME280;29282;45.656;11.302;2022-08-30T07:54:59;98663.78;;;24.93;59.20
33163;BME280;29282;45.656;11.302;2022-08-30T07:57:25;98671.28;;;24.92;59.41
33163;BME280;29282;45.656;11.302;2022-08-30T07:59:51;98676.03;;;24.92;59.38
33163;BME280;29282;45.656;11.302;2022-08-30T08:02:17;98680.41;;;24.93;59.43
33163;BME280;29282;45.656;11.302;2022-08-30T08:04:44;98676.03;;;24.92;59.52
33163;BME280;29282;45.656;11.302;2022-08-30T08:07:10;98676.03;;;24.92;59.39
33163;BME280;29282;45.656;11.302;2022-08-30T08:09:37;98680.41;;;24.93;59.52
33163;BME280;29282;45.656;11.302;2022-08-30T08:12:04;98683.16;;;24.93;59.44
33163;BME280;29282;45.656;11.302;2022-08-30T08:14:31;98679.59;;;24.92;59.53
33163;BME280;29282;45.656;11.302;2022-08-30T08:16:57;98676.84;;;24.92;59.36
33163;BME280;29282;45.656;11.302;2022-08-30T08:19:22;98677.63;;;24.93;59.55
33163;BME280;29282;45.656;11.302;2022-08-30T08:21:48;98680.41;;;24.93;59.27
33163;BME280;29282;45.656;11.302;2022-08-30T08:24:24;98678.44;;;24.93;59.56
33163;BME280;29282;45.656;11.302;2022-08-30T08:26:49;98674.06;;;24.92;59.51
33163;BME280;29282;45.656;11.302;2022-08-30T08:29:14;98671.66;;;24.91;59.48
33163;BME280;29282;45.656;11.302;2022-08-30T08:31:40;98673.66;;;24.90;59.46
33163;BME280;29282;45.656;11.302;2022-08-30T08:34:07;98664.94;;;24.92;59.65
33163;BME280;29282;45.656;11.302;2022-08-30T08:36:34;98663.78;;;24.93;59.35
33163;BME280;29282;45.656;11.302;2022-08-30T08:39:01;98670.94;;;24.94;59.49
33163;BME280;29282;45.656;11.302;2022-08-30T08:41:40;98668.50;;;24.92;59.22
33163;BME280;29282;45.656;11.302;2022-08-30T08:44:42;98657.81;;;24.91;59.25
33163;BME280;29282;45.656;11.302;2022-08-30T08:47:16;98665.34;;;24.90;59.56
33163;BME280;29282;45.656;11.302;2022-08-30T08:49:49;98670.50;;;24.92;59.35
33163;BME280;29282;45.656;11.302;2022-08-30T08:52:50;98660.19;;;24.92;59.31
33163;BME280;29282;45.656;11.302;2022-08-30T08:55:39;98662.97;;;24.92;59.33
33163;BME280;29282;45.656;11.302;2022-08-30T08:58:07;98668.91;;;24.91;59.45
33163;BME280;29282;45.656;11.302;2022-08-30T09:00:37;98664.16;;;24.91;59.37
33163;BME280;29282;45.656;11.302;2022-08-30T09:03:03;98670.50;;;24.92;59.23
33163;BME280;29282;45.656;11.302;2022-08-30T09:05:35;98667.72;;;24.92;59.57
33163;BME280;29282;45.656;11.302;2022-08-30T09:08:05;98666.53;;;24.93;59.25
33163;BME280;29282;45.656;11.302;2022-08-30T09:10:32;98661.00;;;24.93;59.38
33163;BME280;29282;45.656;11.302;2022-08-30T09:13:01;98661.78;;;24.93;59.48
33163;BME280;29282;45.656;11.302;2022-08-30T09:15:29;98662.63;;;24.94;59.40
33163;BME280;29282;45.656;11.302;2022-08-30T09:20:30;98663.41;;;24.94;59.50
33163;BME280;29282;45.656;11.302;2022-08-30T09:22:56;98662.63;;;24.94;59.42
33163;BME280;29282;45.656;11.302;2022-08-30T09:25:28;98659.84;;;24.94;59.32
33163;BME280;29282;45.656;11.302;2022-08-30T09:28:08;98661.44;;;24.95;59.13
33163;BME280;29282;45.656;11.302;2022-08-30T09:30:34;98655.91;;;24.95;59.27
33163;BME280;29282;45.656;11.302;2022-08-30T09:33:02;98655.91;;;24.95;59.30
33163;BME280;29282;45.656;11.302;2022-08-30T09:35:36;98653.13;;;24.95;59.37
33163;BME280;29282;45.656;11.302;2022-08-30T09:40:36;98646.41;;;24.96;59.30
33163;BME280;29282;45.656;11.302;2022-08-30T09:46:06;98653.91;;;24.95;59.08
33163;BME280;29282;45.656;11.302;2022-08-30T09:48:39;98650.34;;;24.95;59.20
33163;BME280;29282;45.656;11.302;2022-08-30T09:51:14;98646.41;;;24.96;59.22
33163;BME280;29282;45.656;11.302;2022-08-30T09:54:12;98644.44;;;24.96;58.92
33163;BME280;29282;45.656;11.302;2022-08-30T09:59:49;98649.97;;;24.96;59.00
33163;BME280;29282;45.656;11.302;2022-08-30T10:15:41;98645.66;;;24.99;58.96
33163;BME280;29282;45.656;11.302;2022-08-30T10:23:24;98638.16;;;24.99;59.09
33163;BME280;29282;45.656;11.302;2022-08-30T10:28:34;98634.56;;;24.99;58.99
33163;BME280;29282;45.656;11.302;2022-08-30T10:31:06;98634.56;;;24.99;59.09
33163;BME280;29282;45.656;11.302;2022-08-30T10:33:37;98635.03;;;25.01;59.03
33163;BME280;29282;45.656;11.302;2022-08-30T10:36:09;98637.78;;;25.01;58.92
33163;BME280;29282;45.656;11.302;2022-08-30T10:38:38;98635.03;;;25.01;58.71
33163;BME280;29282;45.656;11.302;2022-08-30T10:41:40;98632.25;;;25.01;58.92
33163;BME280;29282;45.656;11.302;2022-08-30T10:44:08;98626.69;;;25.01;58.71
33163;BME280;29282;45.656;11.302;2022-08-30T10:49:19;98630.28;;;25.01;58.89
33163;BME280;29282;45.656;11.302;2022-08-30T10:51:59;98631.44;;;25.00;58.83
33163;BME280;29282;45.656;11.302;2022-08-30T10:54:39;98631.44;;;25.00;58.84
33163;BME280;29282;45.656;11.302;2022-08-30T10:57:09;98629.47;;;25.01;58.73
33163;BME280;29282;45.656;11.302;2022-08-30T10:59:37;98630.28;;;25.01;58.71
33163;BME280;29282;45.656;11.302;2022-08-30T11:02:46;98620.38;;;25.00;58.96
33163;BME280;29282;45.656;11.302;2022-08-30T11:13:11;98610.47;;;25.03;58.72
33163;BME280;29282;45.656;11.302;2022-08-30T11:16:00;98605.75;;;25.03;58.75
33163;BME280;29282;45.656;11.302;2022-08-30T11:18:29;98601.75;;;25.01;58.76
33163;BME280;29282;45.656;11.302;2022-08-30T11:24:06;98596.22;;;25.01;58.91
33163;BME280;29282;45.656;11.302;2022-08-30T11:31:55;98597.00;;;25.01;58.81
33163;BME280;29282;45.656;11.302;2022-08-30T11:37:08;98582.34;;;25.01;58.81
33163;BME280;29282;45.656;11.302;2022-08-30T11:42:34;98572.84;;;25.02;58.80
33163;BME280;29282;45.656;11.302;2022-08-30T11:48:01;98566.50;;;25.01;58.75
33163;BME280;29282;45.656;11.302;2022-08-30T11:50:40;98560.97;;;25.01;58.67
33163;BME280;29282;45.656;11.302;2022-08-30T11:53:32;98560.59;;;25.03;58.64
33163;BME280;29282;45.656;11.302;2022-08-30T11:56:20;98563.75;;;25.01;58.59
33163;BME280;29282;45.656;11.302;2022-08-30T11:58:55;98552.66;;;25.01;58.94
33163;BME280;29282;45.656;11.302;2022-08-30T12:14:55;98533.69;;;25.03;58.68
33163;BME280;29282;45.656;11.302;2022-08-30T12:22:46;98528.84;;;24.97;59.06
33163;BME280;29282;45.656;11.302;2022-08-30T12:25:23;98525.97;;;24.93;58.73
33163;BME280;29282;45.656;11.302;2022-08-30T12:27:49;98528.28;;;24.88;58.42
33163;BME280;29282;45.656;11.302;2022-08-30T12:30:24;98529.38;;;24.83;57.67
33163;BME280;29282;45.656;11.302;2022-08-30T12:32:51;98523.00;;;24.79;57.10
33163;BME280;29282;45.656;11.302;2022-08-30T12:35:22;98525.41;;;24.80;56.51
33163;BME280;29282;45.656;11.302;2022-08-30T12:38:02;98526.94;;;24.78;56.27
33163;BME280;29282;45.656;11.302;2022-08-30T12:40:30;98509.09;;;24.75;55.71
33163;BME280;29282;45.656;11.302;2022-08-30T12:43:03;98505.09;;;24.73;55.42
33163;BME280;29282;45.656;11.302;2022-08-30T12:45:49;98506.25;;;24.72;54.84
33163;BME280;29282;45.656;11.302;2022-08-30T12:48:16;98507.00;;;24.69;54.20
33163;BME280;29282;45.656;11.302;2022-08-30T12:50:57;98507.78;;;24.69;54.02
33163;BME280;29282;45.656;11.302;2022-08-30T12:53:29;98502.31;;;24.73;54.55
33163;BME280;29282;45.656;11.302;2022-08-30T13:01:39;98498.09;;;24.82;55.07
33163;BME280;29282;45.656;11.302;2022-08-30T13:06:56;98492.25;;;24.88;54.28
33163;BME280;29282;45.656;11.302;2022-08-30T13:12:00;98487.50;;;24.88;54.51
33163;BME280;29282;45.656;11.302;2022-08-30T13:22:03;98485.97;;;24.91;54.51
33163;BME280;29282;45.656;11.302;2022-08-30T13:24:29;98478.81;;;24.90;54.54
33163;BME280;29282;45.656;11.302;2022-08-30T13:26:58;98473.28;;;24.90;54.54
33163;BME280;29282;45.656;11.302;2022-08-30T13:29:27;98471.31;;;24.90;54.95
33163;BME280;29282;45.656;11.302;2022-08-30T13:31:53;98473.28;;;24.90;54.90
33163;BME280;29282;45.656;11.302;2022-08-30T13:34:19;98471.31;;;24.90;54.72
33163;BME280;29282;45.656;11.302;2022-08-30T13:36:56;98461.81;;;24.91;54.82
33163;BME280;29282;45.656;11.302;2022-08-30T13:39:22;98466.56;;;24.91;55.09
33163;BME280;29282;45.656;11.302;2022-08-30T13:41:49;98464.59;;;24.91;54.98
33163;BME280;29282;45.656;11.302;2022-08-30T13:44:14;98462.63;;;24.92;55.05
33163;BME280;29282;45.656;11.302;2022-08-30T13:46:48;98462.22;;;24.93;54.85
33163;BME280;29282;45.656;11.302;2022-08-30T13:49:18;98461.44;;;24.93;55.23
33163;BME280;29282;45.656;11.302;2022-08-30T13:51:44;98459.47;;;24.93;55.35
33163;BME280;29282;45.656;11.302;2022-08-30T13:54:10;98453.13;;;24.93;55.15
33163;BME280;29282;45.656;11.302;2022-08-30T13:56:35;98452.75;;;24.94;54.99
33163;BME280;29282;45.656;11.302;2022-08-30T13:59:01;98450.78;;;24.95;54.93
33163;BME280;29282;45.656;11.302;2022-08-30T14:01:27;98440.88;;;24.94;55.35
33163;BME280;29282;45.656;11.302;2022-08-30T14:03:53;98439.69;;;24.95;55.13
33163;BME280;29282;45.656;11.302;2022-08-30T14:06:19;98437.38;;;24.97;55.36
33163;BME280;29282;45.656;11.302;2022-08-30T14:08:44;98434.22;;;24.98;55.12
33163;BME280;29282;45.656;11.302;2022-08-30T14:11:11;98419.56;;;24.98;55.27
33163;BME280;29282;45.656;11.302;2022-08-30T14:13:37;98409.25;;;24.98;55.31
33163;BME280;29282;45.656;11.302;2022-08-30T14:16:06;98407.28;;;24.99;55.30
33163;BME280;29282;45.656;11.302;2022-08-30T14:18:32;98405.69;;;24.98;55.44
33163;BME280;29282;45.656;11.302;2022-08-30T14:20:58;98394.59;;;24.98;55.27
33163;BME280;29282;45.656;11.302;2022-08-30T14:23:25;98391.03;;;24.97;55.42
33163;BME280;29282;45.656;11.302;2022-08-30T14:25:51;98383.09;;;24.96;55.61
33163;BME280;29282;45.656;11.302;2022-08-30T14:28:17;98373.97;;;24.95;55.81
33163;BME280;29282;45.656;11.302;2022-08-30T14:30:43;98371.22;;;24.95;55.52
33163;BME280;29282;45.656;11.302;2022-08-30T14:33:08;98367.63;;;24.95;55.81
33163;BME280;29282;45.656;11.302;2022-08-30T14:35:34;98370.41;;;24.95;55.78
33163;BME280;29282;45.656;11.302;2022-08-30T14:37:59;98364.06;;;24.94;55.86